createdAt,value
2018-06-23T00:01:13.697Z,57.70
2018-06-23T00:03:43.324Z,58.90
2018-06-23T00:06:13.072Z,58.80
2018-06-23T00:08:43.006Z,59.10
2018-06-23T00:11:13.180Z,57.90
2018-06-23T00:13:42.786Z,58.30
2018-06-23T00:16:14.042Z,58.50
2018-06-23T00:18:44.303Z,59.40
2018-06-23T00:21:14.471Z,60.80
2018-06-23T00:23:44.144Z,60.20
2018-06-23T00:26:18.852Z,59.30
2018-06-23T00:28:48.557Z,59.50
2018-06-23T00:36:56.442Z,58.50
2018-06-23T00:39:26.090Z,58.80
2018-06-23T00:41:55.851Z,59.10
2018-06-23T00:44:25.609Z,59.10
2018-06-23T00:46:55.287Z,58.60
2018-06-23T00:49:25.030Z,59.30
2018-06-23T00:51:54.879Z,60.20
2018-06-23T00:54:24.629Z,60.80
2018-06-23T00:56:54.288Z,59.70
2018-06-23T00:59:35.026Z,59.50
2018-06-23T01:02:05.638Z,59.70
2018-06-23T01:04:35.535Z,59.90
2018-06-23T01:07:05.646Z,59.40
2018-06-23T01:09:35.376Z,58.60
2018-06-23T01:12:05.574Z,59.10
2018-06-23T01:14:35.597Z,59.70
2018-06-23T01:17:06.435Z,60.00
2018-06-23T01:19:36.168Z,58.90
2018-06-23T01:22:05.833Z,59.40
2018-06-23T01:24:35.530Z,59.40
2018-06-23T01:27:05.441Z,60.00
2018-06-23T01:29:35.180Z,60.60
2018-06-23T01:32:04.906Z,60.50
2018-06-23T01:34:34.596Z,61.40
2018-06-23T01:37:04.195Z,61.80
2018-06-23T01:39:34.001Z,63.10
2018-06-23T01:42:04.031Z,61.80
2018-06-23T01:44:33.779Z,60.90
2018-06-23T01:47:03.491Z,61.60
2018-06-23T01:49:33.212Z,61.80
2018-06-23T01:52:03.529Z,61.20
2018-06-23T01:54:33.227Z,60.60
2018-06-23T01:57:02.969Z,59.90
2018-06-23T01:59:32.727Z,59.70
2018-06-23T02:02:02.747Z,61.80
2018-06-23T02:04:32.433Z,61.60
2018-06-23T02:07:02.039Z,61.90
2018-06-23T02:09:31.731Z,61.00
2018-06-23T02:12:01.392Z,61.00
2018-06-23T02:14:36.334Z,61.40
2018-06-23T02:17:11.234Z,61.20
2018-06-23T02:19:46.166Z,61.40
2018-06-23T02:22:20.997Z,61.00
2018-06-23T02:24:55.799Z,60.40
2018-06-23T02:27:30.617Z,60.60
2018-06-23T02:32:46.662Z,59.90
2018-06-23T02:35:16.354Z,59.50
2018-06-23T02:37:46.430Z,59.80
2018-06-23T02:40:16.219Z,60.20
2018-06-23T02:42:45.840Z,61.50
2018-06-23T02:45:15.694Z,60.80
2018-06-23T02:47:45.376Z,60.10
2018-06-23T02:50:15.069Z,60.90
2018-06-23T02:52:44.809Z,61.00
2018-06-23T02:55:14.572Z,60.90
2018-06-23T02:57:44.680Z,60.80
2018-06-23T03:00:14.900Z,61.40
2018-06-23T03:02:44.823Z,61.30
2018-06-23T03:05:14.804Z,60.90
2018-06-23T03:07:44.861Z,61.40
2018-06-23T03:10:14.944Z,62.30
2018-06-23T03:12:44.980Z,62.40
2018-06-23T03:15:15.214Z,62.90
2018-06-23T03:17:46.487Z,63.00
2018-06-23T03:20:16.678Z,62.80
2018-06-23T03:22:49.884Z,62.60
2018-06-23T03:25:19.491Z,63.70
2018-06-23T03:27:49.166Z,64.30
2018-06-23T03:30:18.825Z,63.40
2018-06-23T03:32:48.486Z,63.20
2018-06-23T03:35:19.038Z,62.00
2018-06-23T03:37:49.538Z,62.20
2018-06-23T03:40:20.317Z,63.70
2018-06-23T03:42:50.134Z,62.60
2018-06-23T03:45:19.801Z,62.90
2018-06-23T03:47:49.532Z,61.50
2018-06-23T03:50:19.207Z,61.90
2018-06-23T03:52:48.810Z,62.00
2018-06-23T03:55:18.479Z,62.60
2018-06-23T03:57:48.152Z,61.60
2018-06-23T04:00:17.818Z,63.60
2018-06-23T04:02:47.718Z,62.60
2018-06-23T04:05:17.647Z,62.10
2018-06-23T04:07:47.317Z,61.40
2018-06-23T04:10:17.079Z,62.60
2018-06-23T04:12:47.095Z,62.70
2018-06-23T04:15:17.155Z,62.60
2018-06-23T04:17:47.156Z,61.40
2018-06-23T04:20:17.195Z,61.90
2018-06-23T04:22:47.214Z,61.40
2018-06-23T04:25:17.116Z,61.20
2018-06-23T04:27:47.160Z,59.90
2018-06-23T04:30:17.243Z,60.10
2018-06-23T04:32:47.225Z,60.60
2018-06-23T04:35:17.296Z,59.80
2018-06-23T04:37:47.450Z,57.60
2018-06-23T04:40:17.438Z,59.10
2018-06-23T04:42:47.732Z,59.30
2018-06-23T04:45:17.496Z,58.10
2018-06-23T04:47:47.574Z,58.70
2018-06-23T04:50:17.631Z,57.10
2018-06-23T04:52:47.606Z,57.50
2018-06-23T04:55:17.672Z,55.20
2018-06-23T04:57:47.710Z,55.70
2018-06-23T05:00:17.669Z,57.20
2018-06-23T05:02:47.727Z,57.30
2018-06-23T05:05:17.777Z,57.90
2018-06-23T05:07:47.788Z,56.90
2018-06-23T05:10:17.850Z,57.80
2018-06-23T05:12:47.856Z,57.50
2018-06-23T05:15:17.887Z,56.20
2018-06-23T05:17:47.865Z,56.50
2018-06-23T05:20:17.918Z,57.50
2018-06-23T05:22:48.079Z,57.50
2018-06-23T05:25:18.274Z,57.10
2018-06-23T05:27:49.251Z,58.00
2018-06-23T05:30:18.882Z,56.80
2018-06-23T05:32:48.538Z,57.80
2018-06-23T05:35:18.169Z,57.80
2018-06-23T05:37:49.129Z,56.80
2018-06-23T05:40:18.775Z,55.70
2018-06-23T05:42:48.809Z,53.30
2018-06-23T05:45:18.482Z,56.20
2018-06-23T05:47:48.096Z,55.30
2018-06-23T05:50:18.222Z,55.10
2018-06-23T05:52:47.920Z,54.20
2018-06-23T05:57:57.319Z,54.70
2018-06-23T06:00:27.057Z,55.20
2018-06-23T06:02:57.361Z,55.20
2018-06-23T06:05:27.421Z,55.70
2018-06-23T06:07:57.780Z,51.70
2018-06-23T06:10:34.197Z,53.10
2018-06-23T06:13:08.437Z,52.50
2018-06-23T06:15:50.808Z,51.30
2018-06-23T06:18:28.846Z,50.30
2018-06-23T06:21:04.906Z,49.80
2018-06-23T06:23:43.508Z,48.00
2018-06-23T06:26:23.282Z,46.70
2018-06-23T06:31:43.656Z,46.00
2018-06-23T06:34:21.942Z,47.00
2018-06-23T06:37:04.633Z,45.50
2018-06-23T06:39:41.204Z,44.90
2018-06-23T06:42:21.439Z,43.60
2018-06-23T06:45:02.237Z,46.30
2018-06-23T06:47:51.965Z,45.00
2018-06-23T06:50:35.812Z,43.90
2018-06-23T06:53:20.356Z,44.30
2018-06-23T06:58:46.480Z,43.10
2018-06-23T07:01:20.498Z,42.40
2018-06-23T07:04:00.067Z,42.50
2018-06-23T07:06:39.160Z,43.40
2018-06-23T07:09:19.944Z,43.80
2018-06-23T07:14:46.599Z,44.00
2018-06-23T07:17:28.030Z,42.20
2018-06-23T07:20:05.487Z,43.00
2018-06-23T07:22:44.860Z,45.50
2018-06-23T07:28:13.078Z,44.40
2018-06-23T07:30:55.240Z,43.10
2018-06-23T07:36:19.890Z,42.00
2018-06-23T07:39:07.400Z,43.20
2018-06-23T07:41:48.126Z,42.20
2018-06-23T07:44:29.381Z,43.70
2018-06-23T07:47:14.941Z,41.60
2018-06-23T07:52:43.454Z,42.50
2018-06-23T07:55:23.578Z,42.40
2018-06-23T08:00:52.490Z,43.10
2018-06-23T08:03:32.688Z,43.10
2018-06-23T08:06:11.254Z,43.50
2018-06-23T08:11:31.573Z,43.20
2018-06-23T08:14:09.267Z,45.90
2018-06-23T08:16:53.683Z,42.00
2018-06-23T08:22:10.957Z,43.20
2018-06-23T08:24:49.395Z,41.60
2018-06-23T08:27:36.846Z,43.60
2018-06-23T08:30:24.435Z,44.00
2018-06-23T08:33:09.274Z,42.40
2018-06-23T08:35:55.764Z,42.70
2018-06-23T08:38:41.165Z,40.70
2018-06-23T08:44:19.549Z,43.90
2018-06-23T08:49:53.177Z,42.20
2018-06-23T08:52:32.929Z,43.00
2018-06-23T08:58:02.871Z,43.10
2018-06-23T09:03:45.117Z,45.10
2018-06-23T09:06:21.525Z,42.70
2018-06-23T09:08:56.114Z,41.90
2018-06-23T09:11:33.484Z,42.10
2018-06-23T09:14:12.375Z,45.30
2018-06-23T09:22:31.340Z,39.70
2018-06-23T09:25:13.516Z,40.20
2018-06-23T09:27:47.152Z,42.60
2018-06-23T09:30:19.753Z,41.50
2018-06-23T09:32:51.543Z,41.50
2018-06-23T09:35:23.214Z,40.60
2018-06-23T09:37:56.327Z,41.20
2018-06-23T09:40:29.119Z,39.90
2018-06-23T09:43:00.833Z,41.10
2018-06-23T09:45:32.748Z,41.00
2018-06-23T09:48:04.709Z,38.90
2018-06-23T09:50:38.169Z,39.20
2018-06-23T09:53:11.948Z,40.80
2018-06-23T09:55:43.594Z,40.00
2018-06-23T09:58:15.922Z,37.00
2018-06-23T10:00:47.457Z,37.90
2018-06-23T10:03:19.164Z,41.30
2018-06-23T10:05:50.695Z,40.40
2018-06-23T10:08:23.392Z,40.20
2018-06-23T10:10:58.860Z,41.60
2018-06-23T10:13:46.892Z,39.30
2018-06-23T10:16:22.629Z,38.10
2018-06-23T10:18:54.965Z,40.40
2018-06-23T10:21:27.425Z,40.60
2018-06-23T10:23:59.791Z,40.30
2018-06-23T10:26:32.611Z,36.30
2018-06-23T10:29:05.676Z,38.20
2018-06-23T10:31:38.633Z,36.70
2018-06-23T10:34:11.287Z,37.90
2018-06-23T10:36:42.852Z,40.50
2018-06-23T10:39:15.752Z,39.60
2018-06-23T10:41:48.816Z,39.20
2018-06-23T10:44:21.294Z,39.90
2018-06-23T10:46:52.806Z,38.20
2018-06-23T10:49:24.400Z,38.70
2018-06-23T10:51:56.218Z,38.80
2018-06-23T10:54:27.846Z,38.80
2018-06-23T10:56:59.604Z,35.90
2018-06-23T10:59:31.526Z,36.90
2018-06-23T11:02:04.915Z,38.60
2018-06-23T11:04:37.185Z,41.30
2018-06-23T11:07:08.977Z,35.40
2018-06-23T11:09:41.221Z,39.70
2018-06-23T11:12:13.265Z,35.70
2018-06-23T11:14:47.303Z,37.70
2018-06-23T11:17:18.778Z,37.00
2018-06-23T11:19:50.917Z,35.00
2018-06-23T11:22:23.088Z,36.80
2018-06-23T11:24:55.593Z,35.00
2018-06-23T11:27:33.496Z,34.00
2018-06-23T11:30:11.854Z,35.40
2018-06-23T11:32:54.517Z,38.70
2018-06-23T11:35:35.531Z,36.90
2018-06-23T11:38:13.049Z,35.40
2018-06-23T11:40:50.025Z,34.60
2018-06-23T11:43:30.137Z,35.30
2018-06-23T11:46:16.421Z,35.80
2018-06-23T11:48:54.718Z,34.30
2018-06-23T11:51:28.342Z,33.70
2018-06-23T11:54:14.249Z,36.90
2018-06-23T11:56:55.387Z,37.00
2018-06-23T11:59:39.555Z,34.40
2018-06-23T12:02:23.229Z,38.20
2018-06-23T12:05:06.680Z,35.30
2018-06-23T12:07:44.150Z,33.70
2018-06-23T12:10:36.752Z,37.20
2018-06-23T12:13:20.660Z,34.40
2018-06-23T12:15:58.665Z,38.10
2018-06-23T12:18:36.792Z,35.00
2018-06-23T12:21:23.438Z,33.40
2018-06-23T12:24:00.481Z,35.30
2018-06-23T12:26:34.476Z,32.90
2018-06-23T12:29:08.435Z,32.90
2018-06-23T12:31:41.004Z,35.10
2018-06-23T12:34:15.466Z,36.60
2018-06-23T12:36:48.922Z,32.80
2018-06-23T12:39:25.327Z,35.00
2018-06-23T12:41:58.207Z,34.40
2018-06-23T12:44:34.311Z,34.00
2018-06-23T12:47:07.962Z,36.10
2018-06-23T12:49:42.381Z,34.50
2018-06-23T12:52:18.821Z,32.90
2018-06-23T12:54:57.805Z,32.20
2018-06-23T12:57:32.437Z,33.20
2018-06-23T13:00:06.259Z,34.10
2018-06-23T13:02:39.868Z,31.60
2018-06-23T13:07:57.485Z,32.60
2018-06-23T13:10:31.233Z,34.40
2018-06-23T13:13:06.496Z,34.20
2018-06-23T13:15:38.796Z,32.20
2018-06-23T13:18:11.555Z,34.50
2018-06-23T13:20:43.919Z,34.90
2018-06-23T13:23:16.729Z,34.10
2018-06-23T13:25:49.000Z,32.80
2018-06-23T13:28:21.599Z,30.80
2018-06-23T13:30:55.498Z,34.50
2018-06-23T13:33:31.155Z,32.60
2018-06-23T13:36:04.062Z,32.90
2018-06-23T13:38:37.073Z,36.10
2018-06-23T13:41:11.158Z,35.10
2018-06-23T13:43:44.113Z,33.40
2018-06-23T13:46:17.192Z,32.40
2018-06-23T13:48:50.166Z,34.50
2018-06-23T13:51:24.093Z,34.40
2018-06-23T13:53:56.106Z,32.10
2018-06-23T13:56:29.283Z,34.20
2018-06-23T13:59:03.468Z,34.10
2018-06-23T14:01:36.404Z,33.80
2018-06-23T14:04:09.761Z,32.30
2018-06-23T14:06:42.241Z,32.40
2018-06-23T14:09:14.488Z,32.70
2018-06-23T14:11:46.667Z,34.10
2018-06-23T14:19:57.953Z,33.00
2018-06-23T14:22:44.321Z,34.00
2018-06-23T14:25:25.349Z,34.80
2018-06-23T14:28:05.759Z,33.10
2018-06-23T14:30:38.281Z,34.30
2018-06-23T14:33:13.644Z,35.90
2018-06-23T14:35:51.515Z,33.50
2018-06-23T14:38:24.402Z,32.60
2018-06-23T14:41:01.979Z,34.50
2018-06-23T14:43:39.009Z,35.20
2018-06-23T14:46:23.452Z,35.00
2018-06-23T14:48:56.281Z,34.60
2018-06-23T14:51:28.860Z,33.80
2018-06-23T14:54:03.339Z,34.00
2018-06-23T14:56:45.653Z,34.20
2018-06-23T14:59:18.963Z,34.90
2018-06-23T15:01:52.993Z,32.20
2018-06-23T15:04:25.963Z,32.90
2018-06-23T15:07:00.458Z,34.10
2018-06-23T15:09:44.200Z,33.10
2018-06-23T15:12:31.870Z,34.10
2018-06-23T15:15:05.745Z,32.70
2018-06-23T15:17:38.069Z,32.00
2018-06-23T15:20:10.406Z,34.80
2018-06-23T15:22:52.864Z,35.00
2018-06-23T15:25:37.229Z,32.60
2018-06-23T15:28:23.682Z,32.90
2018-06-23T15:31:08.778Z,36.70
2018-06-23T15:33:48.010Z,33.70
2018-06-23T15:39:25.609Z,35.60
2018-06-23T15:42:05.013Z,35.20
2018-06-23T15:44:55.489Z,36.00
2018-06-23T15:47:36.797Z,37.30
2018-06-23T15:53:11.456Z,39.10
2018-06-23T15:56:01.599Z,38.00
2018-06-23T15:58:52.854Z,37.70
2018-06-23T16:01:38.322Z,36.30
2018-06-23T16:04:20.964Z,37.20
2018-06-23T16:10:03.381Z,36.00
2018-06-23T16:12:47.432Z,36.10
2018-06-23T16:15:28.656Z,36.80
2018-06-23T16:18:09.616Z,37.20
2018-06-23T16:26:49.524Z,36.10
2018-06-23T16:29:33.439Z,36.00
2018-06-23T16:35:04.474Z,35.90
2018-06-23T16:37:51.253Z,36.20
2018-06-23T16:40:34.766Z,35.50
2018-06-23T16:46:03.408Z,36.00
2018-06-23T16:48:44.943Z,36.30
2018-06-23T16:54:19.513Z,37.00
2018-06-23T16:59:54.405Z,36.40
2018-06-23T17:02:37.053Z,37.40
2018-06-23T17:08:27.344Z,37.60
2018-06-23T17:14:02.320Z,38.70
2018-06-23T17:19:41.237Z,38.60
2018-06-23T17:22:20.679Z,38.40
2018-06-23T17:24:58.035Z,40.00
2018-06-23T17:27:36.724Z,40.00
2018-06-23T17:30:15.637Z,38.80
2018-06-23T17:32:51.428Z,39.40
2018-06-23T17:35:30.644Z,40.80
2018-06-23T17:38:08.424Z,41.00
2018-06-23T17:40:41.902Z,41.60
2018-06-23T17:43:21.185Z,41.00
2018-06-23T17:45:58.860Z,39.80
2018-06-23T17:48:36.438Z,40.40
2018-06-23T17:51:11.977Z,41.00
2018-06-23T17:53:43.872Z,41.50
2018-06-23T17:56:15.965Z,41.30
2018-06-23T17:58:49.839Z,41.50
2018-06-23T18:01:23.065Z,42.70
2018-06-23T18:03:55.417Z,41.90
2018-06-23T18:06:28.894Z,43.10
2018-06-23T18:09:00.948Z,44.20
2018-06-23T18:11:35.049Z,43.20
2018-06-23T18:14:08.515Z,43.80
2018-06-23T18:16:53.374Z,43.20
2018-06-23T18:19:41.708Z,44.30
2018-06-23T18:22:23.848Z,45.40
2018-06-23T18:25:09.315Z,43.50
2018-06-23T18:27:52.323Z,44.40
2018-06-23T18:30:34.401Z,44.40
2018-06-23T18:33:11.991Z,44.30
2018-06-23T18:35:56.551Z,46.70
2018-06-23T18:38:30.504Z,44.70
2018-06-23T18:41:07.916Z,44.60
2018-06-23T18:43:42.661Z,45.60
2018-06-23T18:46:16.722Z,45.60
2018-06-23T18:48:50.956Z,45.80
2018-06-23T18:51:25.044Z,45.00
2018-06-23T18:53:56.923Z,45.40
2018-06-23T18:56:34.073Z,44.90
2018-06-23T18:59:07.195Z,45.00
2018-06-23T19:01:39.872Z,45.70
2018-06-23T19:04:13.436Z,46.00
2018-06-23T19:06:52.473Z,46.70
2018-06-23T19:09:27.160Z,44.60
2018-06-23T19:12:00.027Z,45.40
2018-06-23T19:14:32.324Z,45.10
2018-06-23T19:17:04.359Z,46.30
2018-06-23T19:19:37.259Z,45.20
2018-06-23T19:22:09.593Z,45.10
2018-06-23T19:24:43.768Z,44.20
2018-06-23T19:27:17.043Z,46.50
2018-06-23T19:29:49.866Z,46.00
2018-06-23T19:32:23.225Z,46.20
2018-06-23T19:35:00.532Z,46.70
2018-06-23T19:37:34.598Z,45.70
2018-06-23T19:40:07.324Z,45.90
2018-06-23T19:42:40.102Z,44.50
2018-06-23T19:45:16.385Z,45.60
2018-06-23T19:47:48.416Z,45.30
2018-06-23T19:50:21.800Z,44.80
2018-06-23T19:52:53.903Z,46.00
2018-06-23T19:55:26.940Z,43.90
2018-06-23T19:57:59.273Z,42.70
2018-06-23T20:00:31.987Z,42.40
2018-06-23T20:03:03.981Z,42.40
2018-06-23T20:05:38.111Z,42.90
2018-06-23T20:08:17.594Z,42.30
2018-06-23T20:10:55.413Z,43.20
2018-06-23T20:13:32.764Z,43.40
2018-06-23T20:16:09.269Z,43.80
2018-06-23T20:18:47.851Z,43.00
2018-06-23T20:21:26.163Z,43.10
2018-06-23T20:24:01.114Z,43.90
2018-06-23T20:26:34.540Z,43.60
2018-06-23T20:29:09.095Z,43.80
2018-06-23T20:31:46.316Z,45.00
2018-06-23T20:34:19.412Z,42.30
2018-06-23T20:36:57.730Z,44.00
2018-06-23T20:39:40.054Z,43.80
2018-06-23T20:42:20.224Z,43.10
2018-06-23T20:44:57.857Z,43.10
2018-06-23T20:47:36.126Z,43.50
2018-06-23T20:50:11.558Z,43.30
2018-06-23T20:52:49.904Z,43.40
2018-06-23T20:57:59.311Z,44.70
2018-06-23T21:00:38.459Z,45.10
2018-06-23T21:03:16.023Z,44.10
2018-06-23T21:05:56.876Z,43.10
2018-06-23T21:08:35.656Z,42.60
2018-06-23T21:11:11.163Z,43.10
2018-06-23T21:13:52.299Z,44.20
2018-06-23T21:16:34.197Z,44.70
2018-06-23T21:19:09.221Z,42.60
2018-06-23T21:21:51.731Z,43.00
2018-06-23T21:24:33.614Z,43.20
2018-06-23T21:27:13.969Z,43.60
2018-06-23T21:29:50.945Z,42.90
2018-06-23T21:32:28.360Z,43.40
2018-06-23T21:35:04.741Z,43.20
2018-06-23T21:37:45.998Z,44.00
2018-06-23T21:40:24.607Z,43.80
2018-06-23T21:42:59.685Z,44.00
2018-06-23T21:48:19.549Z,44.80
2018-06-23T21:50:54.101Z,44.30
2018-06-23T21:53:40.884Z,44.90
2018-06-23T21:56:18.080Z,43.70
2018-06-23T21:58:51.812Z,44.20
2018-06-23T22:01:24.990Z,44.50
2018-06-23T22:03:59.112Z,44.60
2018-06-23T22:06:33.511Z,45.00
2018-06-23T22:09:14.733Z,44.80
2018-06-23T22:11:49.920Z,45.00
2018-06-23T22:14:35.488Z,44.10
2018-06-23T22:17:19.505Z,45.30
2018-06-23T22:19:56.832Z,45.50
2018-06-23T22:25:19.823Z,45.10
2018-06-23T22:27:57.432Z,45.30
2018-06-23T22:30:38.625Z,46.50
2018-06-23T22:33:15.717Z,47.30
2018-06-23T22:35:51.310Z,47.50
2018-06-23T22:38:27.445Z,47.20
2018-06-23T22:41:07.083Z,47.60
2018-06-23T22:43:45.420Z,47.90
2018-06-23T22:46:19.844Z,48.20
2018-06-23T22:49:00.402Z,48.10
2018-06-23T22:51:41.596Z,47.80
2018-06-23T22:54:20.359Z,48.50
2018-06-23T22:56:57.950Z,48.60
2018-06-23T23:02:24.040Z,48.70
2018-06-23T23:05:05.926Z,48.60
2018-06-23T23:07:45.504Z,49.70
2018-06-23T23:10:27.235Z,51.30
2018-06-23T23:15:56.696Z,50.70
2018-06-23T23:18:30.808Z,49.80
2018-06-23T23:21:10.111Z,48.20
2018-06-23T23:23:46.820Z,48.10
2018-06-23T23:26:33.048Z,48.20
2018-06-23T23:29:20.820Z,48.10
2018-06-23T23:34:46.376Z,49.60
2018-06-23T23:37:21.485Z,49.00
2018-06-23T23:42:49.187Z,51.70
2018-06-23T23:45:31.271Z,51.90
2018-06-23T23:48:11.622Z,51.10
2018-06-23T23:50:51.675Z,50.00
2018-06-23T23:56:13.999Z,51.50
2018-06-23T23:58:56.436Z,51.80
